createdAt,value
2018-04-06T00:00:20.319Z,1015.82
2018-04-06T00:01:20.302Z,1015.81
2018-04-06T00:02:20.286Z,1015.83
2018-04-06T00:03:20.252Z,1015.79
2018-04-06T00:04:20.240Z,1015.78
2018-04-06T00:05:20.212Z,1015.86
2018-04-06T00:06:20.190Z,1015.89
2018-04-06T00:07:20.169Z,1015.96
2018-04-06T00:08:20.151Z,1015.96
2018-04-06T00:09:20.129Z,1016.03
2018-04-06T00:10:20.107Z,1015.98
2018-04-06T00:11:20.094Z,1015.95
2018-04-06T00:12:20.064Z,1015.94
2018-04-06T00:13:20.046Z,1015.94
2018-04-06T00:14:20.024Z,1016.00
2018-04-06T00:15:20.003Z,1016.04
2018-04-06T00:16:19.981Z,1016.03
2018-04-06T00:17:19.960Z,1016.11
2018-04-06T00:18:19.941Z,1016.09
2018-04-06T00:19:19.919Z,1016.11
2018-04-06T00:20:19.906Z,1016.09
2018-04-06T00:21:19.874Z,1016.14
2018-04-06T00:22:19.854Z,1016.13
2018-04-06T00:23:19.832Z,1016.21
2018-04-06T00:24:19.812Z,1016.21
2018-04-06T00:25:19.792Z,1016.23
2018-04-06T00:26:19.770Z,1016.29
2018-04-06T00:27:19.746Z,1016.30
2018-04-06T00:28:19.726Z,1016.29
2018-04-06T00:29:19.706Z,1016.35
2018-04-06T00:30:19.687Z,1016.33
2018-04-06T00:31:19.670Z,1016.41
2018-04-06T00:32:19.648Z,1016.39
2018-04-06T00:33:19.621Z,1016.46
2018-04-06T00:34:19.602Z,1016.44
2018-04-06T00:35:19.586Z,1016.47
2018-04-06T00:36:19.559Z,1016.48
2018-04-06T00:37:19.539Z,1016.55
2018-04-06T00:38:19.517Z,1016.56
2018-04-06T00:39:19.509Z,1016.53
2018-04-06T00:40:19.473Z,1016.60
2018-04-06T00:41:19.453Z,1016.59
2018-04-06T00:42:19.442Z,1016.66
2018-04-06T00:43:19.412Z,1016.60
2018-04-06T00:44:19.391Z,1016.73
2018-04-06T00:45:19.370Z,1016.70
2018-04-06T00:46:19.350Z,1016.82
2018-04-06T00:47:19.329Z,1016.73
2018-04-06T00:48:19.306Z,1016.79
2018-04-06T00:49:19.286Z,1016.80
2018-04-06T00:50:19.263Z,1016.84
2018-04-06T00:51:19.247Z,1016.75
2018-04-06T00:52:19.221Z,1016.79
2018-04-06T00:53:19.203Z,1016.76
2018-04-06T00:54:19.183Z,1016.80
2018-04-06T00:55:19.157Z,1016.81
2018-04-06T00:56:19.141Z,1016.84
2018-04-06T00:57:19.115Z,1016.81
2018-04-06T00:58:19.094Z,1016.80
2018-04-06T00:59:19.074Z,1016.82
2018-04-06T01:00:19.053Z,1016.82
2018-04-06T01:01:19.032Z,1016.86
2018-04-06T01:02:19.010Z,1016.87
2018-04-06T01:03:18.992Z,1016.84
2018-04-06T01:04:18.967Z,1016.81
2018-04-06T01:05:18.946Z,1016.90
2018-04-06T01:06:18.925Z,1016.85
2018-04-06T01:07:18.905Z,1016.83
2018-04-06T01:08:18.886Z,1016.86
2018-04-06T01:09:18.862Z,1016.84
2018-04-06T01:10:18.841Z,1016.81
2018-04-06T01:11:18.818Z,1016.81
2018-04-06T01:12:18.799Z,1016.82
2018-04-06T01:13:18.777Z,1016.85
2018-04-06T01:14:18.763Z,1016.91
2018-04-06T01:15:18.735Z,1016.84
2018-04-06T01:16:18.720Z,1016.88
2018-04-06T01:17:18.696Z,1016.88
2018-04-06T01:18:18.672Z,1016.92
2018-04-06T01:19:18.650Z,1016.89
2018-04-06T01:20:18.631Z,1016.89
2018-04-06T01:21:18.605Z,1016.94
2018-04-06T01:22:18.586Z,1016.92
2018-04-06T01:23:18.566Z,1016.95
2018-04-06T01:24:18.542Z,1016.98
2018-04-06T01:25:18.521Z,1016.92
2018-04-06T01:26:18.501Z,1016.93
2018-04-06T01:27:18.480Z,1016.96
2018-04-06T01:28:18.456Z,1017.06
2018-04-06T01:29:18.438Z,1017.13
2018-04-06T01:30:18.416Z,1017.09
2018-04-06T01:31:18.395Z,1017.08
2018-04-06T01:32:18.379Z,1017.03
2018-04-06T01:33:18.352Z,1017.07
2018-04-06T01:34:18.331Z,1017.04
2018-04-06T01:35:18.310Z,1017.08
2018-04-06T01:36:18.289Z,1017.03
2018-04-06T01:37:18.266Z,1017.00
2018-04-06T01:38:18.248Z,1017.02
2018-04-06T01:39:18.223Z,1017.05
2018-04-06T01:40:18.202Z,1016.98
2018-04-06T01:41:18.185Z,1017.05
2018-04-06T01:42:18.163Z,1017.01
2018-04-06T01:43:18.137Z,1017.03
2018-04-06T01:44:18.123Z,1016.99
2018-04-06T01:45:18.105Z,1017.01
2018-04-06T01:46:18.079Z,1017.02
2018-04-06T01:47:18.052Z,1017.05
2018-04-06T01:48:18.033Z,1017.11
2018-04-06T01:49:18.012Z,1017.11
2018-04-06T01:50:17.990Z,1017.09
2018-04-06T01:51:17.968Z,1017.09
2018-04-06T01:52:17.948Z,1017.13
2018-04-06T01:53:17.924Z,1017.19
2018-04-06T01:54:17.905Z,1017.23
2018-04-06T01:55:17.883Z,1017.24
2018-04-06T01:56:17.863Z,1017.19
2018-04-06T01:57:17.841Z,1017.22
2018-04-06T01:58:17.823Z,1017.20
2018-04-06T01:59:17.799Z,1017.27
2018-04-06T02:00:17.780Z,1017.30
2018-04-06T02:01:17.757Z,1017.29
2018-04-06T02:02:17.737Z,1017.33
2018-04-06T02:03:17.716Z,1017.32
2018-04-06T02:04:17.698Z,1017.31
2018-04-06T02:05:17.671Z,1017.34
2018-04-06T02:06:17.652Z,1017.37
2018-04-06T02:07:17.634Z,1017.40
2018-04-06T02:08:17.604Z,1017.48
2018-04-06T02:09:17.585Z,1017.44
2018-04-06T02:10:17.563Z,1017.44
2018-04-06T02:11:17.540Z,1017.39
2018-04-06T02:12:17.521Z,1017.39
2018-04-06T02:13:17.497Z,1017.41
2018-04-06T02:14:17.480Z,1017.42
2018-04-06T02:15:17.456Z,1017.53
2018-04-06T02:16:17.434Z,1017.45
2018-04-06T02:17:17.412Z,1017.49
2018-04-06T02:18:17.396Z,1017.53
2018-04-06T02:19:17.373Z,1017.48
2018-04-06T02:20:17.348Z,1017.56
2018-04-06T02:21:17.328Z,1017.53
2018-04-06T02:22:17.304Z,1017.47
2018-04-06T02:23:17.284Z,1017.54
2018-04-06T02:24:17.264Z,1017.59
2018-04-06T02:25:17.241Z,1017.63
2018-04-06T02:26:17.222Z,1017.67
2018-04-06T02:27:17.199Z,1017.66
2018-04-06T02:28:17.177Z,1017.65
2018-04-06T02:29:17.157Z,1017.70
2018-04-06T02:30:17.141Z,1017.71
2018-04-06T02:31:17.118Z,1017.68
2018-04-06T02:32:17.092Z,1017.70
2018-04-06T02:33:17.081Z,1017.65
2018-04-06T02:34:17.048Z,1017.69
2018-04-06T02:35:17.030Z,1017.71
2018-04-06T02:36:17.011Z,1017.71
2018-04-06T02:37:16.989Z,1017.77
2018-04-06T02:38:16.964Z,1017.74
2018-04-06T02:39:16.941Z,1017.74
2018-04-06T02:40:16.924Z,1017.69
2018-04-06T02:41:16.899Z,1017.77
2018-04-06T02:42:16.877Z,1017.81
2018-04-06T02:43:16.856Z,1017.78
2018-04-06T02:44:16.842Z,1017.80
2018-04-06T02:45:16.813Z,1017.77
2018-04-06T02:46:16.796Z,1017.83
2018-04-06T02:47:16.775Z,1017.83
2018-04-06T02:48:16.749Z,1017.80
2018-04-06T02:49:16.731Z,1017.84
2018-04-06T02:50:16.707Z,1017.84
2018-04-06T02:51:16.684Z,1017.85
2018-04-06T02:52:16.664Z,1017.86
2018-04-06T02:53:16.643Z,1017.91
2018-04-06T02:54:16.621Z,1017.93
2018-04-06T02:55:16.601Z,1017.92
2018-04-06T02:56:16.578Z,1017.94
2018-04-06T02:57:16.564Z,1017.92
2018-04-06T02:58:16.540Z,1017.95
2018-04-06T02:59:16.512Z,1017.98
2018-04-06T03:00:16.494Z,1017.94
2018-04-06T03:01:16.472Z,1018.01
2018-04-06T03:02:16.456Z,1018.00
2018-04-06T03:03:16.436Z,1018.01
2018-04-06T03:04:16.405Z,1018.04
2018-04-06T03:05:16.390Z,1018.04
2018-04-06T03:06:16.364Z,1017.99
2018-04-06T03:07:16.341Z,1017.96
2018-04-06T03:08:16.320Z,1017.99
2018-04-06T03:09:16.326Z,1018.03
2018-04-06T03:10:16.277Z,1017.99
2018-04-06T03:11:16.258Z,1018.04
2018-04-06T03:12:16.232Z,1018.03
2018-04-06T03:13:16.213Z,1018.04
2018-04-06T03:14:16.191Z,1018.06
2018-04-06T03:15:16.170Z,1018.07
2018-04-06T03:16:16.148Z,1018.08
2018-04-06T03:17:16.127Z,1018.10
2018-04-06T03:18:16.105Z,1018.10
2018-04-06T03:19:16.082Z,1018.07
2018-04-06T03:20:16.070Z,1018.13
2018-04-06T03:21:16.040Z,1018.12
2018-04-06T03:22:16.024Z,1018.13
2018-04-06T03:23:15.998Z,1018.16
2018-04-06T03:24:15.975Z,1018.21
2018-04-06T03:25:15.954Z,1018.22
2018-04-06T03:26:15.933Z,1018.20
2018-04-06T03:27:15.917Z,1018.22
2018-04-06T03:28:15.890Z,1018.20
2018-04-06T03:29:15.869Z,1018.23
2018-04-06T03:30:15.847Z,1018.26
2018-04-06T03:31:15.829Z,1018.25
2018-04-06T03:32:15.808Z,1018.24
2018-04-06T03:33:15.783Z,1018.27
2018-04-06T03:34:15.761Z,1018.22
2018-04-06T03:35:15.741Z,1018.25
2018-04-06T03:36:15.719Z,1018.27
2018-04-06T03:37:15.698Z,1018.25
2018-04-06T03:38:15.676Z,1018.31
2018-04-06T03:39:15.651Z,1018.34
2018-04-06T03:40:15.636Z,1018.30
2018-04-06T03:41:15.661Z,1018.27
2018-04-06T03:42:15.591Z,1018.35
2018-04-06T03:43:15.567Z,1018.33
2018-04-06T03:44:15.548Z,1018.31
2018-04-06T03:45:15.528Z,1018.31
2018-04-06T03:46:15.504Z,1018.34
2018-04-06T03:47:15.481Z,1018.37
2018-04-06T03:48:15.461Z,1018.31
2018-04-06T03:49:15.437Z,1018.35
2018-04-06T03:50:15.419Z,1018.39
2018-04-06T03:51:15.396Z,1018.36
2018-04-06T03:52:15.376Z,1018.39
2018-04-06T03:53:15.351Z,1018.44
2018-04-06T03:54:15.329Z,1018.41
2018-04-06T03:55:15.307Z,1018.43
2018-04-06T03:56:15.287Z,1018.47
2018-04-06T03:57:15.265Z,1018.49
2018-04-06T03:58:15.248Z,1018.57
2018-04-06T03:59:15.223Z,1018.51
2018-04-06T04:00:15.202Z,1018.58
2018-04-06T04:01:15.179Z,1018.54
2018-04-06T04:02:15.157Z,1018.52
2018-04-06T04:03:15.135Z,1018.54
2018-04-06T04:04:15.112Z,1018.58
2018-04-06T04:05:15.090Z,1018.56
2018-04-06T04:06:15.072Z,1018.58
2018-04-06T04:07:15.050Z,1018.61
2018-04-06T04:08:15.029Z,1018.56
2018-04-06T04:09:15.006Z,1018.60
2018-04-06T04:10:14.982Z,1018.54
2018-04-06T04:11:14.962Z,1018.54
2018-04-06T04:12:14.941Z,1018.59
2018-04-06T04:13:14.918Z,1018.51
2018-04-06T04:14:14.897Z,1018.51
2018-04-06T04:15:14.875Z,1018.50
2018-04-06T04:16:14.854Z,1018.51
2018-04-06T04:17:14.831Z,1018.58
2018-04-06T04:18:14.811Z,1018.53
2018-04-06T04:19:14.788Z,1018.56
2018-04-06T04:20:14.767Z,1018.57
2018-04-06T04:21:14.745Z,1018.57
2018-04-06T04:22:14.725Z,1018.60
2018-04-06T04:23:14.704Z,1018.60
2018-04-06T04:24:14.679Z,1018.60
2018-04-06T04:25:14.662Z,1018.59
2018-04-06T04:26:14.638Z,1018.62
2018-04-06T04:27:14.618Z,1018.60
2018-04-06T04:28:14.594Z,1018.58
2018-04-06T04:29:14.573Z,1018.58
2018-04-06T04:30:14.551Z,1018.59
2018-04-06T04:31:14.528Z,1018.64
2018-04-06T04:32:14.510Z,1018.62
2018-04-06T04:33:14.485Z,1018.64
2018-04-06T04:34:14.464Z,1018.70
2018-04-06T04:35:14.442Z,1018.65
2018-04-06T04:36:14.419Z,1018.67
2018-04-06T04:37:14.400Z,1018.62
2018-04-06T04:38:14.383Z,1018.66
2018-04-06T04:39:14.356Z,1018.68
2018-04-06T04:40:14.335Z,1018.69
2018-04-06T04:41:14.314Z,1018.70
2018-04-06T04:42:14.290Z,1018.70
2018-04-06T04:43:14.276Z,1018.76
2018-04-06T04:44:14.250Z,1018.80
2018-04-06T04:45:14.230Z,1018.77
2018-04-06T04:46:14.206Z,1018.74
2018-04-06T04:47:14.186Z,1018.70
2018-04-06T04:48:14.170Z,1018.73
2018-04-06T04:49:14.142Z,1018.75
2018-04-06T04:50:14.119Z,1018.74
2018-04-06T04:51:14.100Z,1018.75
2018-04-06T04:52:14.080Z,1018.70
2018-04-06T04:53:14.074Z,1018.66
2018-04-06T04:54:14.035Z,1018.70
2018-04-06T04:55:14.011Z,1018.75
2018-04-06T04:56:13.989Z,1018.76
2018-04-06T04:57:13.969Z,1018.81
2018-04-06T04:58:13.945Z,1018.80
2018-04-06T04:59:13.927Z,1018.81
2018-04-06T05:00:13.902Z,1018.82
2018-04-06T05:01:13.881Z,1018.84
2018-04-06T05:02:13.861Z,1018.80
2018-04-06T05:03:13.838Z,1018.83
2018-04-06T05:04:13.816Z,1018.84
2018-04-06T05:05:13.794Z,1018.82
2018-04-06T05:06:13.781Z,1018.87
2018-04-06T05:07:13.751Z,1018.97
2018-04-06T05:08:13.729Z,1019.01
2018-04-06T05:09:13.707Z,1019.04
2018-04-06T05:10:13.690Z,1019.03
2018-04-06T05:11:13.665Z,1019.04
2018-04-06T05:12:13.645Z,1019.06
2018-04-06T05:13:13.622Z,1019.08
2018-04-06T05:14:13.603Z,1019.09
2018-04-06T05:15:13.584Z,1019.16
2018-04-06T05:16:13.565Z,1019.12
2018-04-06T05:17:13.537Z,1019.18
2018-04-06T05:18:13.517Z,1019.16
2018-04-06T05:19:13.494Z,1019.14
2018-04-06T05:20:13.474Z,1019.19
2018-04-06T05:21:13.454Z,1019.26
2018-04-06T05:22:13.437Z,1019.28
2018-04-06T05:23:13.408Z,1019.24
2018-04-06T05:24:13.385Z,1019.22
2018-04-06T05:25:13.363Z,1019.24
2018-04-06T05:26:13.351Z,1019.23
2018-04-06T05:27:13.321Z,1019.25
2018-04-06T05:28:13.302Z,1019.26
2018-04-06T05:29:13.278Z,1019.25
2018-04-06T05:30:13.259Z,1019.30
2018-04-06T05:31:13.238Z,1019.24
2018-04-06T05:32:13.216Z,1019.28
2018-04-06T05:33:13.196Z,1019.31
2018-04-06T05:34:13.176Z,1019.29
2018-04-06T05:35:13.149Z,1019.33
2018-04-06T05:36:13.130Z,1019.30
2018-04-06T05:37:13.111Z,1019.32
2018-04-06T05:38:13.096Z,1019.29
2018-04-06T05:39:13.065Z,1019.31
2018-04-06T05:40:13.046Z,1019.38
2018-04-06T05:41:13.024Z,1019.39
2018-04-06T05:42:13.003Z,1019.41
2018-04-06T05:43:12.982Z,1019.38
2018-04-06T05:44:12.960Z,1019.38
2018-04-06T05:45:12.941Z,1019.39
2018-04-06T05:46:12.918Z,1019.45
2018-04-06T05:47:12.899Z,1019.51
2018-04-06T05:48:12.873Z,1019.52
2018-04-06T05:49:12.857Z,1019.47
2018-04-06T05:50:12.835Z,1019.50
2018-04-06T05:51:12.813Z,1019.54
2018-04-06T05:52:12.787Z,1019.58
2018-04-06T05:53:12.770Z,1019.57
2018-04-06T05:54:12.751Z,1019.59
2018-04-06T05:55:12.723Z,1019.55
2018-04-06T05:56:12.706Z,1019.51
2018-04-06T05:57:12.682Z,1019.52
2018-04-06T05:58:12.664Z,1019.56
2018-04-06T05:59:12.637Z,1019.57
2018-04-06T06:00:12.618Z,1019.61
2018-04-06T06:01:12.599Z,1019.65
2018-04-06T06:02:12.575Z,1019.65
2018-04-06T06:03:12.554Z,1019.61
2018-04-06T06:04:12.534Z,1019.68
2018-04-06T06:05:12.517Z,1019.69
2018-04-06T06:06:12.490Z,1019.74
2018-04-06T06:07:12.469Z,1019.71
2018-04-06T06:08:12.450Z,1019.76
2018-04-06T06:09:12.427Z,1019.78
2018-04-06T06:10:12.406Z,1019.77
2018-04-06T06:11:12.386Z,1019.83
2018-04-06T06:12:12.365Z,1019.88
2018-04-06T06:13:12.344Z,1019.85
2018-04-06T06:14:12.326Z,1019.91
2018-04-06T06:15:12.301Z,1019.87
2018-04-06T06:16:12.280Z,1019.91
2018-04-06T06:17:12.260Z,1019.90
2018-04-06T06:18:12.239Z,1019.93
2018-04-06T06:19:12.217Z,1019.98
2018-04-06T06:20:12.197Z,1019.99
2018-04-06T06:21:12.177Z,1019.99
2018-04-06T06:22:12.161Z,1019.96
2018-04-06T06:23:12.186Z,1020.01
2018-04-06T06:24:12.114Z,1020.00
2018-04-06T06:25:12.092Z,1020.00
2018-04-06T06:26:12.071Z,1020.05
2018-04-06T06:27:12.050Z,1020.11
2018-04-06T06:28:12.030Z,1020.05
2018-04-06T06:29:12.041Z,1020.09
2018-04-06T06:30:11.987Z,1020.09
2018-04-06T06:31:11.975Z,1020.13
2018-04-06T06:32:11.950Z,1020.10
2018-04-06T06:33:11.926Z,1020.17
2018-04-06T06:34:11.908Z,1020.18
2018-04-06T06:35:11.886Z,1020.17
2018-04-06T06:36:11.864Z,1020.16
2018-04-06T06:37:11.861Z,1020.19
2018-04-06T06:38:11.824Z,1020.21
2018-04-06T06:39:11.803Z,1020.27
2018-04-06T06:40:11.782Z,1020.26
2018-04-06T06:41:11.765Z,1020.25
2018-04-06T06:42:11.741Z,1020.24
2018-04-06T06:43:11.723Z,1020.24
2018-04-06T06:44:11.700Z,1020.22
2018-04-06T06:45:11.687Z,1020.23
2018-04-06T06:46:11.661Z,1020.31
2018-04-06T06:47:11.639Z,1020.26
2018-04-06T06:48:11.665Z,1020.28
2018-04-06T06:49:11.597Z,1020.28
2018-04-06T06:50:11.581Z,1020.32
2018-04-06T06:51:11.562Z,1020.33
2018-04-06T06:52:11.544Z,1020.35
2018-04-06T06:53:11.515Z,1020.34
2018-04-06T06:54:11.497Z,1020.29
2018-04-06T06:55:11.476Z,1020.29
2018-04-06T06:56:11.456Z,1020.27
2018-04-06T06:57:11.436Z,1020.27
2018-04-06T06:58:11.413Z,1020.31
2018-04-06T06:59:11.394Z,1020.32
2018-04-06T07:00:11.373Z,1020.32
2018-04-06T07:01:11.355Z,1020.33
2018-04-06T07:02:11.335Z,1020.34
2018-04-06T07:03:11.313Z,1020.34
2018-04-06T07:04:11.295Z,1020.34
2018-04-06T07:05:11.273Z,1020.38
2018-04-06T07:06:11.256Z,1020.35
2018-04-06T07:07:11.234Z,1020.30
2018-04-06T07:08:11.213Z,1020.35
2018-04-06T07:09:11.197Z,1020.38
2018-04-06T07:10:11.178Z,1020.39
2018-04-06T07:11:11.154Z,1020.38
2018-04-06T07:12:11.138Z,1020.40
2018-04-06T07:13:11.114Z,1020.40
2018-04-06T07:14:11.095Z,1020.43
2018-04-06T07:15:11.075Z,1020.43
2018-04-06T07:16:11.054Z,1020.50
2018-04-06T07:17:11.035Z,1020.46
2018-04-06T07:18:11.014Z,1020.44
2018-04-06T07:19:10.995Z,1020.53
2018-04-06T07:20:10.979Z,1020.53
2018-04-06T07:21:10.957Z,1020.84
2018-04-06T07:22:10.938Z,1021.17
2018-04-06T07:23:10.918Z,1021.41
2018-04-06T07:24:10.904Z,1021.38
2018-04-06T07:25:10.878Z,1021.45
2018-04-06T07:26:10.875Z,1021.47
2018-04-06T07:27:10.842Z,1021.48
2018-04-06T07:28:10.824Z,1021.41
2018-04-06T07:29:10.809Z,1021.36
2018-04-06T07:30:10.786Z,1021.48
2018-04-06T07:31:10.769Z,1021.54
2018-04-06T07:32:10.754Z,1021.54
2018-04-06T07:33:10.734Z,1021.53
2018-04-06T07:34:10.765Z,1021.45
2018-04-06T07:35:10.702Z,1021.51
2018-04-06T07:36:10.697Z,1021.51
2018-04-06T07:37:10.669Z,1021.59
2018-04-06T07:38:10.655Z,1021.61
2018-04-06T07:39:10.643Z,1021.54
2018-04-06T07:40:10.625Z,1021.49
2018-04-06T07:41:10.611Z,1021.49
2018-04-06T07:42:10.607Z,1021.55
2018-04-06T07:43:10.588Z,1021.53
2018-04-06T07:44:10.576Z,1021.56
2018-04-06T07:45:10.560Z,1021.57
2018-04-06T07:46:10.547Z,1021.41
2018-04-06T07:47:10.537Z,1021.46
2018-04-06T07:48:10.527Z,1021.63
2018-04-06T07:49:10.518Z,1021.63
2018-04-06T07:50:10.505Z,1021.70
2018-04-06T07:51:10.496Z,1021.68
2018-04-06T07:52:10.484Z,1021.73
2018-04-06T07:53:10.486Z,1021.72
2018-04-06T07:54:10.467Z,1021.75
2018-04-06T07:55:10.464Z,1021.77
2018-04-06T07:56:10.454Z,1021.78
2018-04-06T07:57:10.444Z,1021.79
2018-04-06T07:58:10.438Z,1021.85
2018-04-06T07:59:10.429Z,1021.87
2018-04-06T08:00:10.420Z,1021.85
2018-04-06T08:01:10.425Z,1021.85
2018-04-06T08:02:10.419Z,1021.86
2018-04-06T08:03:10.403Z,1021.88
2018-04-06T08:04:10.397Z,1021.92
2018-04-06T08:05:10.391Z,1021.92
2018-04-06T08:06:10.388Z,1021.94
2018-04-06T08:07:10.381Z,1021.95
2018-04-06T08:08:10.377Z,1021.96
2018-04-06T08:09:10.372Z,1021.99
2018-04-06T08:10:10.372Z,1022.08
2018-04-06T08:11:10.364Z,1022.04
2018-04-06T08:12:10.361Z,1022.06
2018-04-06T08:13:10.355Z,1022.00
2018-04-06T08:14:10.355Z,1021.99
2018-04-06T08:15:10.349Z,1022.01
2018-04-06T08:16:10.346Z,1022.05
2018-04-06T08:17:10.354Z,1022.04
2018-04-06T08:18:10.342Z,1022.01
2018-04-06T08:19:10.338Z,1022.01
2018-04-06T08:20:10.334Z,1021.99
2018-04-06T08:21:10.333Z,1022.02
2018-04-06T08:22:10.330Z,1022.04
2018-04-06T08:23:10.331Z,1022.00
2018-04-06T08:24:10.330Z,1021.99
2018-04-06T08:25:10.326Z,1021.94
2018-04-06T08:26:10.368Z,1022.02
2018-04-06T08:27:10.320Z,1022.03
2018-04-06T08:28:10.324Z,1022.00
2018-04-06T08:29:10.320Z,1022.03
2018-04-06T08:30:10.321Z,1021.99
2018-04-06T08:31:10.321Z,1022.02
2018-04-06T08:32:10.317Z,1022.08
2018-04-06T08:33:10.318Z,1022.10
2018-04-06T08:34:10.327Z,1022.18
2018-04-06T08:35:10.315Z,1022.20
2018-04-06T08:36:10.317Z,1022.19
2018-04-06T08:37:10.317Z,1022.16
2018-04-06T08:38:10.321Z,1022.19
2018-04-06T08:39:10.317Z,1022.17
2018-04-06T08:40:10.317Z,1022.20
2018-04-06T08:41:10.320Z,1022.28
2018-04-06T08:42:10.320Z,1022.29
2018-04-06T08:43:10.324Z,1022.36
2018-04-06T08:44:10.321Z,1022.34
2018-04-06T08:45:10.317Z,1022.33
2018-04-06T08:46:10.320Z,1022.35
2018-04-06T08:47:10.319Z,1022.36
2018-04-06T08:48:10.394Z,1022.43
2018-04-06T08:49:10.321Z,1022.38
2018-04-06T08:50:10.321Z,1022.47
2018-04-06T08:51:10.330Z,1022.41
2018-04-06T08:52:10.328Z,1022.42
2018-04-06T08:53:10.331Z,1022.42
2018-04-06T08:54:10.327Z,1022.41
2018-04-06T08:55:10.328Z,1022.38
2018-04-06T08:56:10.325Z,1022.42
2018-04-06T08:57:10.330Z,1022.40
2018-04-06T08:58:10.331Z,1022.41
2018-04-06T08:59:10.332Z,1022.39
2018-04-06T09:00:10.332Z,1022.47
2018-04-06T09:01:10.334Z,1022.41
2018-04-06T09:02:10.334Z,1022.41
2018-04-06T09:03:10.386Z,1022.39
2018-04-06T09:04:10.337Z,1022.42
2018-04-06T09:05:10.356Z,1022.44
2018-04-06T09:06:10.340Z,1022.47
2018-04-06T09:07:10.348Z,1022.51
2018-04-06T09:08:10.342Z,1022.49
2018-04-06T09:09:10.344Z,1022.48
2018-04-06T09:10:10.352Z,1022.49
2018-04-06T09:11:10.352Z,1022.49
2018-04-06T09:12:10.352Z,1022.54
2018-04-06T09:13:10.354Z,1022.54
2018-04-06T09:14:10.355Z,1022.49
2018-04-06T09:15:10.360Z,1022.49
2018-04-06T09:16:10.366Z,1022.50
2018-04-06T09:17:10.357Z,1022.48
2018-04-06T09:18:10.378Z,1022.52
2018-04-06T09:19:10.361Z,1022.53
2018-04-06T09:20:10.377Z,1022.52
2018-04-06T09:21:10.402Z,1022.47
2018-04-06T09:22:10.366Z,1022.44
2018-04-06T09:23:10.369Z,1022.48
2018-04-06T09:24:10.377Z,1022.48
2018-04-06T09:25:10.372Z,1022.47
2018-04-06T09:26:10.382Z,1022.46
2018-04-06T09:27:10.376Z,1022.46
2018-04-06T09:28:10.379Z,1022.40
2018-04-06T09:29:10.392Z,1022.39
2018-04-06T09:30:10.387Z,1022.33
2018-04-06T09:31:10.395Z,1022.30
2018-04-06T09:32:10.392Z,1022.30
2018-04-06T09:33:10.395Z,1022.33
2018-04-06T09:34:10.399Z,1022.37
2018-04-06T09:35:10.395Z,1022.38
2018-04-06T09:36:10.399Z,1022.33
2018-04-06T09:37:10.403Z,1022.31
2018-04-06T09:38:10.409Z,1022.28
2018-04-06T09:39:10.405Z,1022.24
2018-04-06T09:40:10.411Z,1022.26
2018-04-06T09:41:10.410Z,1022.27
2018-04-06T09:42:10.414Z,1022.27
2018-04-06T09:43:10.416Z,1022.29
2018-04-06T09:44:10.422Z,1022.30
2018-04-06T09:45:10.434Z,1022.30
2018-04-06T09:46:10.425Z,1022.31
2018-04-06T09:47:10.429Z,1022.32
2018-04-06T09:48:10.431Z,1022.27
2018-04-06T09:49:10.438Z,1022.25
2018-04-06T09:50:10.441Z,1022.26
2018-04-06T09:51:10.442Z,1022.22
2018-04-06T09:52:10.444Z,1022.20
2018-04-06T09:53:10.445Z,1022.25
2018-04-06T09:54:10.449Z,1022.20
2018-04-06T09:55:10.451Z,1022.20
2018-04-06T09:56:10.457Z,1022.18
2018-04-06T09:57:10.460Z,1022.11
2018-04-06T09:58:10.463Z,1022.05
2018-04-06T09:59:10.469Z,1022.08
2018-04-06T10:00:10.467Z,1022.07
2018-04-06T10:01:10.474Z,1022.13
2018-04-06T10:02:10.525Z,1022.12
2018-04-06T10:03:10.482Z,1022.12
2018-04-06T10:04:10.482Z,1022.16
2018-04-06T10:05:10.495Z,1022.14
2018-04-06T10:06:10.492Z,1022.08
2018-04-06T10:07:10.496Z,1022.10
2018-04-06T10:08:10.498Z,1022.07
2018-04-06T10:09:10.501Z,1022.08
2018-04-06T10:10:10.504Z,1022.03
2018-04-06T10:11:10.509Z,1022.03
2018-04-06T10:12:10.512Z,1022.06
2018-04-06T10:13:10.518Z,1022.10
2018-04-06T10:14:10.521Z,1022.08
2018-04-06T10:15:10.522Z,1022.08
2018-04-06T10:16:10.538Z,1022.03
2018-04-06T10:17:10.540Z,1022.02
2018-04-06T10:18:10.537Z,1021.97
2018-04-06T10:19:10.540Z,1022.02
2018-04-06T10:20:10.542Z,1021.98
2018-04-06T10:21:10.547Z,1021.96
2018-04-06T10:22:10.550Z,1021.93
2018-04-06T10:23:10.558Z,1021.97
2018-04-06T10:24:10.560Z,1022.00
2018-04-06T10:25:10.563Z,1021.94
2018-04-06T10:26:10.570Z,1021.91
2018-04-06T10:27:10.570Z,1021.91
2018-04-06T10:28:10.578Z,1021.84
2018-04-06T10:29:10.579Z,1021.88
2018-04-06T10:30:10.581Z,1021.81
2018-04-06T10:31:10.585Z,1021.77
2018-04-06T10:32:10.591Z,1021.78
2018-04-06T10:33:10.597Z,1021.75
2018-04-06T10:34:10.601Z,1021.72
2018-04-06T10:35:10.611Z,1021.69
2018-04-06T10:36:10.608Z,1021.73
2018-04-06T10:37:10.613Z,1021.70
2018-04-06T10:38:10.615Z,1021.74
2018-04-06T10:39:10.620Z,1021.63
2018-04-06T10:40:10.626Z,1021.69
2018-04-06T10:41:10.629Z,1021.63
2018-04-06T10:42:10.643Z,1021.62
2018-04-06T10:43:10.647Z,1021.62
2018-04-06T10:44:10.643Z,1021.64
2018-04-06T10:45:10.646Z,1021.61
2018-04-06T10:46:10.653Z,1021.60
2018-04-06T10:47:10.657Z,1021.60
2018-04-06T10:48:10.663Z,1021.60
2018-04-06T10:49:10.664Z,1021.60
2018-04-06T10:50:10.672Z,1021.57
2018-04-06T10:51:10.674Z,1021.58
2018-04-06T10:52:10.679Z,1021.60
2018-04-06T10:53:10.685Z,1021.59
2018-04-06T10:54:10.691Z,1021.61
2018-04-06T10:55:10.693Z,1021.58
2018-04-06T10:56:10.699Z,1021.62
2018-04-06T10:57:10.708Z,1021.60
2018-04-06T10:58:10.712Z,1021.65
2018-04-06T10:59:10.713Z,1021.65
2018-04-06T11:00:10.718Z,1021.59
2018-04-06T11:01:10.724Z,1021.57
2018-04-06T11:02:10.728Z,1021.54
2018-04-06T11:03:10.732Z,1021.52
2018-04-06T11:04:10.742Z,1021.57
2018-04-06T11:05:10.745Z,1021.55
2018-04-06T11:06:10.760Z,1021.52
2018-04-06T11:07:10.756Z,1021.48
2018-04-06T11:08:10.760Z,1021.48
2018-04-06T11:09:10.767Z,1021.51
2018-04-06T11:10:10.787Z,1021.48
2018-04-06T11:11:10.776Z,1021.52
2018-04-06T11:12:10.784Z,1021.48
2018-04-06T11:13:10.790Z,1021.54
2018-04-06T11:14:10.792Z,1021.50
2018-04-06T11:15:10.798Z,1021.49
2018-04-06T11:16:10.803Z,1021.45
2018-04-06T11:17:10.809Z,1021.47
2018-04-06T11:18:10.815Z,1021.42
2018-04-06T11:19:10.821Z,1021.52
2018-04-06T11:20:10.827Z,1021.48
2018-04-06T11:21:10.832Z,1021.50
2018-04-06T11:22:10.839Z,1021.53
2018-04-06T11:23:10.869Z,1021.51
2018-04-06T11:24:10.850Z,1021.50
2018-04-06T11:25:10.855Z,1021.46
2018-04-06T11:26:10.862Z,1021.42
2018-04-06T11:27:10.868Z,1021.42
2018-04-06T11:28:10.874Z,1021.34
2018-04-06T11:29:10.879Z,1021.24
2018-04-06T11:30:10.888Z,1021.19
2018-04-06T11:31:10.890Z,1021.22
2018-04-06T11:32:10.943Z,1021.22
2018-04-06T11:33:10.902Z,1021.26
2018-04-06T11:34:10.907Z,1021.19
2018-04-06T11:35:10.916Z,1021.19
2018-04-06T11:36:10.918Z,1021.20
2018-04-06T11:37:10.923Z,1021.24
2018-04-06T11:38:10.934Z,1020.65
2018-04-06T11:39:10.944Z,1021.22
2018-04-06T11:40:10.943Z,1021.21
2018-04-06T11:41:10.947Z,1021.19
2018-04-06T11:42:10.958Z,1021.21
2018-04-06T11:43:10.956Z,1021.20
2018-04-06T11:44:10.994Z,1021.19
2018-04-06T11:45:10.971Z,1021.20
2018-04-06T11:46:10.976Z,1021.19
2018-04-06T11:47:10.982Z,1021.18
2018-04-06T11:48:10.987Z,1021.16
2018-04-06T11:49:10.997Z,1021.15
2018-04-06T11:50:11.009Z,1021.14
2018-04-06T11:51:11.006Z,1021.10
2018-04-06T11:52:11.011Z,1021.14
2018-04-06T11:53:11.017Z,1021.14
2018-04-06T11:54:11.072Z,1021.13
2018-04-06T11:55:11.031Z,1021.13
2018-04-06T11:56:11.032Z,1021.14
2018-04-06T11:57:11.036Z,1021.16
2018-04-06T11:58:11.043Z,1021.20
2018-04-06T11:59:11.050Z,1021.18
2018-04-06T12:00:11.054Z,1021.15
2018-04-06T12:01:11.060Z,1021.20
2018-04-06T12:02:11.067Z,1021.21
2018-04-06T12:03:11.070Z,1021.20
2018-04-06T12:04:11.075Z,1021.22
2018-04-06T12:05:11.082Z,1021.22